Carnes, Iowa
Current Conditions -  °F | °C
As of 4:15 PM on Sunday 23 Nov 2014 (Local Time) from KORC Reporting Station
Clear Clear  
Wind Chill: 36°   Ceiling: Unl
Heat Index: 43°   Visibility: 10mi
Dew Point: 34°   Wind: 14mph
Humidity: 70%   Direction: 330°NNW
Pressure: 29.51"   Gusts: 20mph
Location:  42.9504°N, 96.034°W
Report Text: KORC 232215Z AUTO 33012G17KT 10SM CLR 06/01 A2951 RMK AO2
Loading
Personal Weather Stations






























Interactive Weather Map New forecast layout! Learn more

10-Day Weather Forecast

Advertisements
Track Severe Weather on mobile